Time;durP1;ratioP1;P1;durP2;ratioP2;P2;SDS_P1;SDS_P2;PMS_P1;PMS_P2;Temp;Humidity;BMP_temperature;BMP_pressure;BME280_temperature;BME280_humidity;BME280_pressure;Samples;Min_cycle;Max_cycle;Signal;HPM_P1;HPM_P2
2021/12/06 00:00:17;;;;;;;11.52;4.55;;;0.80;99.90;;;0.40;100.00;96717.00;171823;28;1353;-78
2021/12/06 00:00:33;;;;;;;10.10;4.94;;;0.80;99.90;;;0.46;100.00;96728.00;172557;28;1242;-78
2021/12/06 00:00:57;;;;;;;8.51;4.88;;;0.80;99.90;;;0.40;100.00;96714.34;172074;28;1433;-79
2021/12/06 00:01:33;;;;;;;8.27;5.25;;;0.80;99.90;;;0.43;100.00;96718.50;173192;28;1344;-78
2021/12/06 00:02:09;;;;;;;9.26;5.40;;;0.80;99.90;;;0.37;100.00;96706.69;171757;28;1666;-78
2021/12/06 00:02:22;;;;;;;10.02;5.59;;;0.80;99.90;;;0.48;100.00;96720.72;171756;28;1240;-78
2021/12/06 00:02:28;;;;;;;8.63;5.18;;;0.80;99.90;;;0.42;100.00;96707.09;171103;28;2727;-78
2021/12/06 00:02:34;;;;;;;7.37;4.73;;;0.80;99.90;;;0.43;100.00;96714.06;171425;28;1325;-78
2021/12/06 00:02:41;;;;;;;7.38;4.72;;;0.80;99.90;;;0.34;100.00;96692.91;170702;28;1084;-78
2021/12/06 00:02:51;;;;;;;7.06;4.52;;;0.80;99.90;;;0.50;100.00;96719.63;171733;28;1343;-79
2021/12/06 00:03:04;;;;;;;6.07;4.13;;;0.80;99.90;;;0.39;100.00;96703.91;170498;28;1397;-79
2021/12/06 00:03:39;;;;;;;6.35;4.39;;;0.80;99.90;;;0.49;100.00;96717.09;171623;28;2200;-78
2021/12/06 00:04:06;;;;;;;8.23;4.86;;;0.80;99.90;;;0.48;100.00;96718.06;172516;28;1223;-78
2021/12/06 00:04:23;;;;;;;9.27;4.78;;;0.80;99.90;;;0.45;100.00;96705.97;171159;28;2782;-79
2021/12/06 00:04:39;;;;;;;9.16;5.13;;;0.80;99.90;;;0.34;100.00;96692.91;171675;28;1522;-79
2021/12/06 00:04:46;;;;;;;9.14;4.86;;;0.80;99.90;;;0.14;100.00;96662.19;171205;28;1631;-78
2021/12/06 00:04:53;;;;;;;8.96;4.86;;;0.80;99.90;;;0.45;100.00;96711.28;173084;28;1461;-78
2021/12/06 00:04:59;;;;;;;8.54;4.78;;;0.80;99.90;;;0.24;100.00;96673.56;173175;28;1488;-78
2021/12/06 00:05:07;;;;;;;8.38;4.57;;;0.80;99.90;;;0.51;100.00;96717.81;171856;28;1241;-78
2021/12/06 00:05:16;;;;;;;7.23;4.20;;;0.90;99.90;;;0.48;100.00;96715.44;172439;28;1541;-79
2021/12/06 00:05:26;;;;;;;6.13;3.90;;;0.80;99.90;;;0.45;100.00;96708.63;173196;28;1041;-78
2021/12/06 00:05:33;;;;;;;6.43;4.23;;;0.80;99.90;;;0.42;100.00;96706.25;171229;28;946;-78
2021/12/06 00:05:39;;;;;;;8.20;4.54;;;0.90;99.90;;;0.35;100.00;96690.13;172376;28;1524;-78
2021/12/06 00:05:45;;;;;;;9.63;4.93;;;0.90;99.90;;;0.48;100.00;96713.63;173113;28;1526;-78
2021/12/06 00:05:51;;;;;;;9.97;5.17;;;0.90;99.90;;;0.36;100.00;96685.66;173268;28;1112;-79
2021/12/06 00:05:57;;;;;;;9.63;5.30;;;0.80;99.90;;;0.36;100.00;96694.41;171787;28;1283;-78
2021/12/06 00:06:04;;;;;;;9.27;4.73;;;0.90;99.90;;;0.50;100.00;96722.25;173299;28;935;-78
2021/12/06 00:06:12;;;;;;;6.95;4.53;;;0.90;99.90;;;0.51;100.00;96710.69;173199;28;1600;-78
2021/12/06 00:06:23;;;;;;;7.85;4.75;;;0.90;99.90;;;0.44;100.00;96704.31;171829;28;1382;-78
2021/12/06 00:06:33;;;;;;;9.35;4.69;;;0.90;99.90;;;0.20;100.00;96664.25;172389;28;1438;-78
2021/12/06 00:06:46;;;;;;;10.37;5.03;;;0.90;99.90;;;0.34;100.00;96685.81;172135;28;1485;-78
2021/12/06 00:07:00;;;;;;;9.45;4.71;;;0.90;99.90;;;0.48;100.00;96708.31;172551;28;1201;-78
2021/12/06 00:07:17;;;;;;;7.47;4.45;;;0.90;99.90;;;0.53;100.00;96710.53;171971;28;1211;-78
2021/12/06 00:07:24;;;;;;;7.18;4.28;;;0.90;99.90;;;0.54;100.00;96712.22;172551;28;1204;-78
2021/12/06 00:07:30;;;;;;;7.17;4.30;;;0.90;99.90;;;0.58;100.00;96724.19;172553;28;1382;-78
2021/12/06 00:07:38;;;;;;;6.78;3.98;;;0.90;99.90;;;0.55;100.00;96722.66;171271;28;1517;-78
2021/12/06 00:07:44;;;;;;;6.90;4.30;;;0.90;99.90;;;0.57;100.00;96723.34;170577;29;920;-78
2021/12/06 00:07:51;;;;;;;7.34;4.52;;;0.90;99.90;;;0.55;100.00;96716.53;171826;28;1257;-77
2021/12/06 00:07:57;;;;;;;6.57;4.40;;;0.90;99.90;;;0.54;100.00;96714.84;172481;28;1426;-77
2021/12/06 00:08:05;;;;;;;7.16;4.76;;;0.90;99.90;;;0.38;100.00;96683.69;171899;28;1307;-78
2021/12/06 00:08:11;;;;;;;7.20;4.87;;;0.90;99.90;;;0.38;100.00;96691.63;171785;28;1287;-77
2021/12/06 00:08:17;;;;;;;7.38;4.80;;;0.90;99.90;;;0.53;100.00;96713.19;171244;28;919;-78
2021/12/06 00:08:23;;;;;;;7.90;4.80;;;0.90;99.90;;;0.52;100.00;96717.63;171926;28;979;-78
2021/12/06 00:08:30;;;;;;;7.38;4.78;;;0.90;99.90;;;0.56;100.00;96726.16;171778;28;1470;-78
2021/12/06 00:08:36;;;;;;;8.40;4.80;;;0.90;99.90;;;0.39;100.00;96690.66;173154;28;1423;-78
2021/12/06 00:08:43;;;;;;;9.05;4.75;;;0.90;99.90;;;0.53;100.00;96718.47;173035;28;1424;-78
2021/12/06 00:08:49;;;;;;;8.80;4.74;;;0.90;99.90;;;0.53;100.00;96715.84;171762;28;1483;-78
2021/12/06 00:08:55;;;;;;;9.30;4.85;;;0.90;99.90;;;0.15;100.00;96656.75;171752;28;1728;-78
2021/12/06 00:09:15;;;;;;;9.33;4.67;;;0.90;99.90;;;0.47;100.00;96708.50;171890;28;1035;-78
2021/12/06 00:09:25;;;;;;;7.97;4.69;;;0.90;99.90;;;0.36;100.00;96691.75;171124;28;1345;-78
2021/12/06 00:09:32;;;;;;;7.11;4.76;;;0.90;99.90;;;0.43;100.00;96699.97;172450;28;1706;-78
2021/12/06 00:09:39;;;;;;;7.33;4.43;;;0.90;99.90;;;0.50;100.00;96710.84;173042;28;1725;-79
2021/12/06 00:09:45;;;;;;;7.18;4.22;;;0.90;99.90;;;0.39;100.00;96699.44;172558;28;1059;-78
2021/12/06 00:09:51;;;;;;;6.90;3.87;;;0.90;99.90;;;0.48;100.00;96718.06;172515;28;1438;-78
2021/12/06 00:09:57;;;;;;;6.25;3.78;;;0.90;99.90;;;0.46;100.00;96709.47;173055;28;1421;-78
2021/12/06 00:10:07;;;;;;;5.63;3.97;;;0.90;99.90;;;0.39;100.00;96704.72;171813;28;1261;-78
2021/12/06 00:10:14;;;;;;;6.73;4.53;;;0.90;99.90;;;0.37;100.00;96703.19;171804;28;1133;-78
2021/12/06 00:10:20;;;;;;;6.80;4.63;;;0.90;99.90;;;0.52;100.00;96719.47;172469;28;1275;-78
2021/12/06 00:10:26;;;;;;;7.13;4.77;;;0.90;99.90;;;0.51;100.00;96723.94;172548;28;1335;-78
2021/12/06 00:10:33;;;;;;;6.88;4.52;;;0.90;99.90;;;0.14;100.00;96664.81;171775;28;1471;-78
2021/12/06 00:10:40;;;;;;;7.10;4.38;;;0.90;99.90;;;0.48;100.00;96718.91;171734;28;1312;-78
2021/12/06 00:10:50;;;;;;;7.27;4.60;;;0.90;99.90;;;0.25;100.00;96683.19;171155;28;1427;-78
2021/12/06 00:10:56;;;;;;;7.16;4.61;;;0.90;99.90;;;0.46;100.00;96712.94;170444;29;1444;-78
2021/12/06 00:11:10;;;;;;;7.47;4.78;;;0.90;99.90;;;0.46;100.00;96709.47;171163;28;1482;-78
2021/12/06 00:11:17;;;;;;;8.70;4.85;;;0.90;99.90;;;0.43;100.00;96715.88;171197;28;1228;-78
2021/12/06 00:11:23;;;;;;;9.47;5.10;;;0.90;99.90;;;0.32;100.00;96690.38;171830;28;1386;-78
2021/12/06 00:11:29;;;;;;;10.18;5.40;;;0.90;99.90;;;0.46;100.00;96712.94;171871;28;1285;-79
2021/12/06 00:11:35;;;;;;;9.66;5.64;;;0.90;99.90;;;0.47;100.00;96716.44;169730;29;1329;-78
2021/12/06 00:11:41;;;;;;;9.45;5.55;;;0.90;99.90;;;0.50;100.00;96730.22;170944;28;1470;-78
2021/12/06 00:11:50;;;;;;;8.70;5.40;;;0.90;99.90;;;0.41;100.00;96709.91;172456;28;1412;-78
2021/12/06 00:12:01;;;;;;;8.41;5.04;;;0.80;99.90;;;0.47;100.00;96717.25;172455;28;1489;-78
2021/12/06 00:12:09;;;;;;;7.34;4.33;;;0.90;99.90;;;0.43;100.00;96718.50;171115;28;1212;-78
2021/12/06 00:12:17;;;;;;;6.68;4.28;;;0.90;99.90;;;0.45;100.00;96721.03;170979;28;1374;-78
2021/12/06 00:12:23;;;;;;;7.70;4.53;;;0.90;99.90;;;0.42;100.00;96712.38;171866;28;934;-78
2021/12/06 00:12:29;;;;;;;7.17;4.47;;;0.80;99.90;;;0.42;100.00;96708.88;172609;28;820;-78
2021/12/06 00:12:36;;;;;;;7.75;4.78;;;0.80;99.90;;;0.45;100.00;96713.09;172601;28;911;-78
2021/12/06 00:12:43;;;;;;;8.10;4.87;;;0.90;99.90;;;0.40;100.00;96709.06;173087;28;1365;-78
2021/12/06 00:12:49;;;;;;;8.10;4.60;;;0.90;99.90;;;0.47;100.00;96719.88;171840;28;1281;-79
2021/12/06 00:12:55;;;;;;;7.86;4.40;;;0.90;99.90;;;0.40;100.00;96706.41;171782;28;1349;-78
2021/12/06 00:13:01;;;;;;;7.78;4.28;;;0.90;99.90;;;0.50;100.00;96722.25;171173;28;1422;-78
2021/12/06 00:13:07;;;;;;;7.57;4.17;;;0.90;99.90;;;0.48;100.00;96726.03;171764;28;1342;-78
2021/12/06 00:13:13;;;;;;;7.22;4.00;;;0.80;99.90;;;0.45;100.00;96716.56;171120;28;1292;-78
2021/12/06 00:13:22;;;;;;;7.22;4.20;;;0.80;99.90;;;0.44;100.00;96712.25;171133;28;1287;-78
2021/12/06 00:13:28;;;;;;;7.98;4.28;;;0.90;99.90;;;0.47;100.00;96722.53;171264;28;974;-78
2021/12/06 00:13:41;;;;;;;7.95;4.13;;;0.90;99.90;;;0.40;100.00;96708.22;171116;28;1200;-78
2021/12/06 00:13:49;;;;;;;8.89;4.35;;;0.80;99.90;;;0.39;100.00;96707.38;169747;29;2714;-78
2021/12/06 00:13:55;;;;;;;8.57;5.03;;;0.90;99.90;;;0.07;100.00;96661.06;171211;28;1046;-78
2021/12/06 00:14:03;;;;;;;9.20;5.28;;;0.90;99.90;;;0.49;100.00;96725.88;171914;28;951;-77
2021/12/06 00:14:09;;;;;;;10.22;5.45;;;0.90;99.90;;;0.30;100.00;96692.38;171403;28;1832;-78
2021/12/06 00:14:16;;;;;;;9.93;5.13;;;0.80;99.90;;;0.31;100.00;96696.66;172413;28;1441;-78
2021/12/06 00:14:27;;;;;;;10.07;4.97;;;0.90;99.90;;;0.45;100.00;96716.56;172591;28;856;-78
2021/12/06 00:14:38;;;;;;;9.61;4.72;;;0.80;99.90;;;0.43;100.00;96708.75;171708;28;2857;-78
2021/12/06 00:14:44;;;;;;;7.59;4.52;;;0.90;99.90;;;0.42;100.00;96709.72;171677;28;1509;-78
2021/12/06 00:14:51;;;;;;;7.63;4.60;;;0.90;99.90;;;0.48;100.00;96713.63;171119;28;1638;-78
2021/12/06 00:14:57;;;;;;;8.00;4.47;;;0.80;99.90;;;0.47;100.00;96711.94;171172;28;1368;-78
2021/12/06 00:15:06;;;;;;;7.55;4.15;;;0.80;99.90;;;0.36;100.00;96688.31;171781;28;1206;-78
2021/12/06 00:15:13;;;;;;;7.86;4.33;;;0.90;99.90;;;0.40;100.00;96701.13;171046;28;1465;-78
2021/12/06 00:15:19;;;;;;;7.47;4.53;;;0.80;99.90;;;0.48;100.00;96718.91;170422;29;1392;-78
2021/12/06 00:15:27;;;;;;;7.28;4.43;;;0.90;99.90;;;0.42;100.00;96699.13;171773;28;1518;-78
2021/12/06 00:15:34;;;;;;;8.60;5.00;;;0.80;99.90;;;0.50;100.00;96713.47;171809;28;1351;-78
2021/12/06 00:15:40;;;;;;;8.85;4.85;;;0.90;99.90;;;0.46;100.00;96709.47;171732;28;1599;-78
2021/12/06 00:15:48;;;;;;;9.98;4.75;;;0.80;99.90;;;0.42;100.00;96704.44;171479;28;1464;-79
2021/12/06 00:15:55;;;;;;;9.87;4.74;;;0.80;99.90;;;0.52;100.00;96725.59;171121;28;1494;-78
2021/12/06 00:16:07;;;;;;;9.28;4.98;;;0.90;99.90;;;0.50;100.00;96714.31;171791;28;1458;-78
2021/12/06 00:16:20;;;;;;;7.66;4.74;;;0.90;99.90;;;0.47;100.00;96704.00;171159;28;1757;-78
2021/12/06 00:16:26;;;;;;;6.70;4.35;;;0.90;99.90;;;0.36;100.00;96689.13;172492;28;1205;-78
2021/12/06 00:16:32;;;;;;;6.45;4.03;;;0.90;99.90;;;0.52;100.00;96719.47;171091;28;1190;-78
2021/12/06 00:16:38;;;;;;;6.85;4.40;;;0.90;99.90;;;0.37;100.00;96693.44;170744;28;1479;-78
2021/12/06 00:16:44;;;;;;;6.70;4.50;;;0.90;99.90;;;0.43;100.00;96703.47;170527;29;933;-78
2021/12/06 00:16:50;;;;;;;7.10;4.63;;;0.90;99.90;;;0.28;100.00;96675.78;172365;28;1332;-78
2021/12/06 00:17:00;;;;;;;7.78;4.57;;;0.90;99.90;;;0.29;100.00;96669.50;172531;28;1061;-78
2021/12/06 00:17:13;;;;;;;8.37;4.33;;;0.90;99.90;;;0.17;100.00;96649.47;171777;28;1402;-78
2021/12/06 00:17:19;;;;;;;10.60;4.50;;;0.90;99.90;;;0.54;100.00;96720.16;171769;28;1439;-78
2021/12/06 00:17:25;;;;;;;9.87;4.70;;;0.90;99.90;;;0.53;100.00;96715.84;172498;28;1466;-78
2021/12/06 00:17:31;;;;;;;9.10;4.60;;;0.90;99.90;;;0.53;100.00;96710.53;171941;28;991;-78
2021/12/06 00:17:38;;;;;;;8.77;4.50;;;0.90;99.90;;;0.56;100.00;96713.75;171151;28;1439;-78
2021/12/06 00:17:44;;;;;;;6.42;4.18;;;0.90;99.90;;;0.36;100.00;96683.03;171278;28;1470;-78
2021/12/06 00:17:50;;;;;;;6.22;4.03;;;0.90;99.90;;;0.56;100.00;96721.69;171903;28;944;-78
2021/12/06 00:17:56;;;;;;;6.73;4.00;;;0.90;99.90;;;0.54;100.00;96709.56;172637;28;994;-78
2021/12/06 00:18:03;;;;;;;7.10;4.20;;;0.90;99.90;;;0.43;100.00;96690.22;170512;28;1420;-78
2021/12/06 00:18:09;;;;;;;7.37;4.37;;;0.90;99.90;;;0.55;100.00;96712.06;171845;28;1312;-78
2021/12/06 00:18:16;;;;;;;7.47;4.47;;;0.90;99.90;;;0.42;100.00;96693.00;172450;28;1350;-78
2021/12/06 00:18:22;;;;;;;7.57;4.73;;;0.90;99.90;;;0.58;100.00;96730.31;171802;28;1375;-78
2021/12/06 00:18:28;;;;;;;6.82;4.70;;;0.90;99.90;;;0.33;100.00;96680.63;171882;28;785;-78
2021/12/06 00:18:36;;;;;;;7.45;4.63;;;0.90;99.90;;;0.51;100.00;96712.50;172465;28;1342;-78
2021/12/06 00:18:43;;;;;;;8.20;4.67;;;0.90;99.90;;;0.44;100.00;96691.06;171666;28;1343;-79
2021/12/06 00:18:51;;;;;;;8.27;4.53;;;0.90;99.90;;;0.52;100.00;96704.41;171011;28;1527;-78
2021/12/06 00:18:58;;;;;;;8.89;4.24;;;0.90;99.90;;;0.48;100.00;96703.03;171051;28;1501;-78
2021/12/06 00:19:06;;;;;;;8.26;3.98;;;0.90;99.90;;;0.49;100.00;96702.06;171901;28;967;-78
2021/12/06 00:19:12;;;;;;;7.33;3.70;;;0.90;99.90;;;0.58;100.00;96722.38;170913;28;1901;-78
2021/12/06 00:19:18;;;;;;;7.20;3.72;;;0.90;99.90;;;0.51;100.00;96701.91;171741;28;1226;-78
2021/12/06 00:19:26;;;;;;;6.13;3.58;;;0.90;99.90;;;0.36;100.00;96683.03;171833;28;1470;-78
2021/12/06 00:19:33;;;;;;;7.67;3.73;;;1.00;99.90;;;0.54;100.00;96714.84;171108;28;1342;-78
2021/12/06 00:19:42;;;;;;;8.08;3.92;;;0.90;99.90;;;0.45;100.00;96698.03;171110;28;1477;-78
2021/12/06 00:19:48;;;;;;;8.29;4.16;;;0.90;99.90;;;0.50;100.00;96706.38;170808;28;1393;-78
2021/12/06 00:19:54;;;;;;;8.90;4.78;;;0.90;99.90;;;0.49;100.00;96707.34;171690;28;1506;-78
2021/12/06 00:20:00;;;;;;;7.97;4.78;;;0.90;99.90;;;0.41;100.00;96688.72;171082;28;1217;-78
2021/12/06 00:20:13;;;;;;;7.20;4.83;;;0.90;99.90;;;0.41;100.00;96689.53;171948;28;856;-78
2021/12/06 00:20:19;;;;;;;7.25;4.76;;;0.90;99.90;;;0.56;100.00;96720.84;171168;28;1366;-78
2021/12/06 00:20:26;;;;;;;7.50;4.82;;;0.90;99.90;;;0.50;100.00;96706.38;171117;28;1186;-78
2021/12/06 00:20:32;;;;;;;7.60;4.97;;;0.90;99.90;;;0.59;100.00;96716.09;171878;28;1379;-78
2021/12/06 00:20:38;;;;;;;7.47;4.93;;;0.90;99.90;;;0.50;100.00;96698.44;171959;28;999;-78
2021/12/06 00:20:45;;;;;;;7.57;5.07;;;0.90;99.90;;;0.47;100.00;96693.41;171656;28;1738;-78
2021/12/06 00:20:51;;;;;;;8.40;4.88;;;0.90;99.90;;;0.55;100.00;96716.53;172140;28;1545;-78
2021/12/06 00:20:57;;;;;;;7.82;5.00;;;0.90;99.90;;;0.50;100.00;96705.53;171753;28;1403;-78
2021/12/06 00:21:05;;;;;;;7.97;4.83;;;1.00;99.90;;;0.49;100.00;96696.75;171903;28;940;-78
2021/12/06 00:21:11;;;;;;;8.47;4.63;;;0.90;99.90;;;0.53;100.00;96706.06;171751;28;1388;-78
2021/12/06 00:21:20;;;;;;;7.90;4.43;;;0.90;99.90;;;0.54;100.00;96705.09;170528;29;1094;-78
2021/12/06 00:21:27;;;;;;;7.80;4.23;;;0.90;99.90;;;0.53;100.00;96706.06;171678;28;1284;-78
2021/12/06 00:21:34;;;;;;;8.06;4.22;;;0.90;99.90;;;0.55;100.00;96708.59;173745;28;1511;-78
2021/12/06 00:21:40;;;;;;;7.83;4.40;;;0.90;99.90;;;0.58;100.00;96705.63;172515;28;1399;-78
2021/12/06 00:21:46;;;;;;;8.60;4.65;;;1.00;99.90;;;0.62;100.00;96721.09;172070;28;1570;-78
2021/12/06 00:21:53;;;;;;;8.68;4.85;;;1.00;99.90;;;0.56;100.00;96708.47;171586;28;1446;-78
2021/12/06 00:22:05;;;;;;;8.08;4.44;;;1.00;99.90;;;0.34;100.00;96672.56;171784;28;1331;-78
2021/12/06 00:22:23;;;;;;;7.07;4.18;;;1.00;99.90;;;0.55;100.00;96712.06;172049;28;1217;-78
2021/12/06 00:22:28;;;;;;;6.49;4.07;;;1.00;99.90;;;0.52;100.00;96706.25;171808;28;1679;-78
2021/12/06 00:22:35;;;;;;;7.50;4.32;;;1.00;99.90;;;0.58;100.00;96711.78;171121;28;1239;-78
2021/12/06 00:22:42;;;;;;;7.37;4.30;;;0.90;99.90;;;0.59;100.00;96716.09;171704;28;1489;-78
2021/12/06 00:22:48;;;;;;;7.06;4.08;;;1.00;99.90;;;0.49;100.00;96696.75;170776;28;1615;-78
2021/12/06 00:22:54;;;;;;;6.55;4.18;;;1.00;99.90;;;0.53;100.00;96702.59;172353;28;1406;-78
2021/12/06 00:23:00;;;;;;;6.32;4.25;;;0.90;99.90;;;0.53;100.00;96703.44;171178;28;1524;-78
2021/12/06 00:23:06;;;;;;;6.28;4.25;;;1.00;99.90;;;0.57;100.00;96712.75;171884;28;955;-78
2021/12/06 00:23:12;;;;;;;6.87;4.27;;;1.00;99.90;;;0.54;100.00;96706.91;171809;28;1284;-78
2021/12/06 00:23:18;;;;;;;7.17;4.60;;;0.90;99.90;;;0.43;100.00;96689.38;171897;28;1125;-79
2021/12/06 00:23:24;;;;;;;7.03;4.40;;;0.90;99.90;;;0.50;100.00;96701.09;171797;28;1184;-78
2021/12/06 00:23:31;;;;;;;7.37;4.20;;;0.90;99.90;;;0.57;100.00;96712.75;170420;29;1380;-78
2021/12/06 00:23:39;;;;;;;6.97;4.23;;;1.00;99.90;;;0.49;100.00;96701.22;171931;28;847;-78
2021/12/06 00:23:45;;;;;;;6.70;4.20;;;0.90;99.90;;;0.48;100.00;96697.72;172323;28;1481;-78
2021/12/06 00:23:52;;;;;;;6.93;4.13;;;1.00;99.90;;;0.53;100.00;96705.25;171702;28;1591;-78
2021/12/06 00:23:58;;;;;;;7.10;4.27;;;1.00;99.90;;;0.58;100.00;96710.94;171072;28;1368;-78
2021/12/06 00:24:04;;;;;;;6.90;4.33;;;0.90;99.90;;;0.20;100.00;96651.84;171857;28;1287;-78
2021/12/06 00:24:10;;;;;;;7.32;4.78;;;1.00;99.90;;;0.48;100.00;96692.44;172413;28;1205;-78
2021/12/06 00:24:16;;;;;;;6.95;4.78;;;0.90;99.90;;;0.45;100.00;96690.09;172447;28;1334;-78
2021/12/06 00:24:22;;;;;;;6.28;4.53;;;1.00;99.90;;;0.51;100.00;96694.81;172526;28;994;-78
2021/12/06 00:24:29;;;;;;;6.10;4.23;;;0.90;99.90;;;0.59;100.00;96716.09;171780;28;1295;-79
2021/12/06 00:24:35;;;;;;;6.70;4.47;;;0.90;99.90;;;0.43;100.00;96686.75;171598;28;1503;-78
2021/12/06 00:24:41;;;;;;;7.60;4.03;;;1.00;99.90;;;0.60;100.00;96709.81;173108;28;1623;-78
2021/12/06 00:24:47;;;;;;;8.23;4.07;;;1.00;99.90;;;0.46;100.00;96691.75;172803;28;1466;-78
2021/12/06 00:24:56;;;;;;;8.37;4.37;;;0.90;99.90;;;0.53;100.00;96700.78;172337;28;1437;-78
2021/12/06 00:25:04;;;;;;;7.73;4.30;;;1.00;99.90;;;0.42;100.00;96685.06;171813;28;1286;-78
2021/12/06 00:25:13;;;;;;;7.39;4.30;;;1.00;99.90;;;0.53;100.00;96700.78;172733;28;1891;-78
2021/12/06 00:25:21;;;;;;;7.50;4.40;;;1.00;99.90;;;0.54;100.00;96699.81;172441;28;1601;-79
2021/12/06 00:25:27;;;;;;;7.44;4.28;;;1.00;99.90;;;0.53;100.00;96699.94;172479;28;1618;-78
2021/12/06 00:25:35;;;;;;;8.25;4.20;;;1.00;99.90;;;0.54;100.00;96709.56;171815;28;1338;-78
2021/12/06 00:25:41;;;;;;;7.40;3.77;;;0.90;99.90;;;0.55;100.00;96709.44;171154;28;1491;-78
2021/12/06 00:25:46;;;;;;;6.47;3.75;;;1.00;99.90;;;0.25;100.00;96657.56;170497;28;1731;-78
2021/12/06 00:25:53;;;;;;;7.45;3.83;;;1.00;99.90;;;0.45;100.00;96690.09;172407;28;1319;-78
2021/12/06 00:26:00;;;;;;;8.27;4.03;;;1.00;99.90;;;0.48;100.00;96688.94;172369;28;1362;-78
2021/12/06 00:26:08;;;;;;;7.83;4.50;;;1.00;99.90;;;0.53;100.00;96706.06;171769;28;1346;-78
2021/12/06 00:26:14;;;;;;;8.80;4.77;;;1.00;99.90;;;0.52;100.00;96699.09;171095;28;1570;-78
2021/12/06 00:26:20;;;;;;;8.78;4.78;;;1.00;99.90;;;0.60;100.00;96711.63;171230;28;1015;-78
2021/12/06 00:26:26;;;;;;;7.97;4.63;;;1.00;99.90;;;0.50;100.00;96701.09;171878;28;880;-78
2021/12/06 00:26:32;;;;;;;7.73;4.40;;;1.00;99.90;;;0.60;100.00;96709.00;171154;28;1356;-78
2021/12/06 00:26:38;;;;;;;7.40;4.30;;;1.00;99.90;;;0.47;100.00;96695.25;171640;28;1545;-78
2021/12/06 00:26:45;;;;;;;8.85;4.60;;;1.00;99.90;;;0.59;100.00;96715.25;172410;28;1323;-78
2021/12/06 00:26:52;;;;;;;9.00;4.60;;;1.00;99.90;;;0.53;100.00;96705.25;171749;28;1553;-78
2021/12/06 00:26:58;;;;;;;8.77;4.73;;;1.00;99.90;;;0.63;100.00;96720.13;171011;28;1281;-78
2021/12/06 00:27:05;;;;;;;9.43;4.83;;;1.00;99.90;;;0.57;100.00;96712.75;171928;28;888;-78
2021/12/06 00:27:11;;;;;;;9.33;4.97;;;1.00;99.90;;;0.57;100.00;96715.41;171245;28;848;-78
2021/12/06 00:27:17;;;;;;;7.68;4.80;;;1.00;99.90;;;0.64;100.00;96718.31;170565;29;924;-78
2021/12/06 00:27:24;;;;;;;7.40;4.70;;;1.00;99.90;;;0.54;100.00;96699.81;171792;28;1433;-78
2021/12/06 00:27:31;;;;;;;7.20;4.66;;;1.00;99.90;;;0.51;100.00;96700.09;171104;28;1589;-78
2021/12/06 00:27:39;;;;;;;7.13;4.60;;;1.00;99.90;;;0.61;100.00;96716.81;172473;28;1302;-78
2021/12/06 00:27:45;;;;;;;6.77;4.77;;;1.00;99.90;;;0.60;100.00;96723.06;171809;28;1291;-78
2021/12/06 00:27:51;;;;;;;7.35;5.05;;;1.00;99.90;;;0.57;100.00;96704.00;172333;28;1535;-78
2021/12/06 00:27:57;;;;;;;7.97;5.05;;;1.00;99.90;;;0.56;100.00;96711.09;171726;28;1501;-78
2021/12/06 00:28:03;;;;;;;7.53;4.93;;;1.00;99.90;;;0.59;100.00;96710.81;171784;28;1377;-78
2021/12/06 00:28:09;;;;;;;7.17;4.83;;;1.00;99.90;;;0.57;100.00;96707.44;171235;28;927;-78
2021/12/06 00:28:16;;;;;;;7.28;4.40;;;1.00;99.90;;;0.54;100.00;96702.47;170430;29;1321;-78
2021/12/06 00:28:23;;;;;;;7.47;4.25;;;1.00;99.90;;;0.49;100.00;96690.63;170635;29;892;-78
2021/12/06 00:28:29;;;;;;;6.70;4.00;;;1.00;99.90;;;0.63;100.00;96716.63;171873;28;884;-78
2021/12/06 00:28:37;;;;;;;6.90;3.93;;;1.00;99.90;;;0.59;100.00;96716.09;171168;28;1406;-78
2021/12/06 00:28:46;;;;;;;7.32;3.95;;;1.00;99.90;;;0.55;100.00;96701.47;172399;28;1363;-78
2021/12/06 00:28:57;;;;;;;6.83;4.05;;;1.00;99.90;;;0.57;100.00;96704.81;173226;28;990;-78
2021/12/06 00:29:03;;;;;;;6.63;4.14;;;1.00;99.90;;;0.64;100.00;96716.50;171807;28;1493;-78
2021/12/06 00:29:09;;;;;;;5.53;4.13;;;1.00;99.90;;;0.58;100.00;96709.13;170569;29;1376;-78
2021/12/06 00:29:16;;;;;;;5.60;4.07;;;1.00;99.90;;;0.61;100.00;96710.66;171091;28;1521;-78
2021/12/06 00:29:22;;;;;;;5.45;4.00;;;1.00;99.90;;;0.58;100.00;96710.94;171905;28;939;-78
2021/12/06 00:29:28;;;;;;;5.10;3.80;;;1.00;99.90;;;0.54;100.00;96713.03;171194;28;860;-78
2021/12/06 00:29:34;;;;;;;5.87;3.87;;;1.00;99.90;;;0.57;100.00;96710.09;171102;28;1265;-78
2021/12/06 00:29:40;;;;;;;5.80;3.80;;;1.00;99.90;;;0.63;100.00;96722.78;172597;28;922;-78
2021/12/06 00:29:47;;;;;;;5.43;3.50;;;1.00;99.90;;;0.58;100.00;96710.94;171115;28;1311;-78
2021/12/06 00:29:54;;;;;;;5.76;3.76;;;1.00;99.90;;;0.58;100.00;96705.63;171188;28;920;-78
2021/12/06 00:30:00;;;;;;;5.92;4.08;;;1.00;99.90;;;0.49;100.00;96698.56;171037;28;1371;-78
2021/12/06 00:30:15;;;;;;;5.85;4.35;;;1.00;99.90;;;0.64;100.00;96726.25;171583;28;1423;-78
2021/12/06 00:30:21;;;;;;;7.20;4.94;;;1.00;99.90;;;0.52;100.00;96699.09;173181;28;1198;-78
2021/12/06 00:30:27;;;;;;;7.53;5.23;;;1.00;99.90;;;0.61;100.00;96719.44;172581;28;808;-79
2021/12/06 00:30:33;;;;;;;7.20;5.13;;;1.00;99.90;;;0.62;100.00;96723.75;171816;28;1450;-78
2021/12/06 00:30:39;;;;;;;6.84;4.98;;;1.00;99.90;;;0.66;100.00;96721.66;174446;28;1500;-78
2021/12/06 00:30:45;;;;;;;6.27;4.70;;;1.00;99.90;;;0.34;100.00;96672.56;173177;28;1437;-78
2021/12/06 00:30:52;;;;;;;6.17;4.40;;;1.00;99.90;;;0.65;100.00;96723.47;170330;29;1494;-78
2021/12/06 00:30:59;;;;;;;6.03;4.00;;;1.00;99.90;;;0.56;100.00;96705.81;170484;29;1336;-78
2021/12/06 00:31:05;;;;;;;5.93;3.95;;;1.00;99.90;;;0.57;100.00;96706.66;171131;28;1318;-79
2021/12/06 00:31:14;;;;;;;6.22;3.82;;;1.00;99.90;;;0.57;100.00;96714.59;171738;28;1529;-78
2021/12/06 00:31:20;;;;;;;5.70;3.70;;;1.00;99.90;;;0.57;100.00;96701.34;171729;28;1401;-78
2021/12/06 00:31:32;;;;;;;5.72;3.78;;;1.00;99.90;;;0.30;100.00;96665.91;171135;28;1204;-78
2021/12/06 00:31:39;;;;;;;5.93;3.82;;;1.00;99.90;;;0.59;100.00;96713.44;172448;28;1520;-78
2021/12/06 00:31:46;;;;;;;5.33;3.70;;;1.00;99.90;;;0.65;100.00;96725.28;172499;28;1414;-78
2021/12/06 00:31:52;;;;;;;5.93;4.12;;;1.00;99.90;;;0.58;100.00;96711.78;170482;29;964;-78
2021/12/06 00:31:59;;;;;;;5.93;4.20;;;1.00;99.90;;;0.48;100.00;96699.53;172113;28;1364;-78
2021/12/06 00:32:06;;;;;;;5.33;4.03;;;1.00;99.90;;;0.60;100.00;96716.94;171166;28;1252;-78
2021/12/06 00:32:12;;;;;;;5.33;4.00;;;1.00;99.90;;;0.56;100.00;96707.63;170685;28;1083;-78
2021/12/06 00:32:20;;;;;;;6.22;4.56;;;1.00;99.90;;;0.61;100.00;96716.81;171812;28;1367;-78
2021/12/06 00:32:26;;;;;;;6.93;4.80;;;1.00;99.90;;;0.44;100.00;96688.41;172497;28;1300;-78
2021/12/06 00:32:32;;;;;;;8.05;4.90;;;1.00;99.90;;;0.55;100.00;96704.13;170513;28;1326;-78
2021/12/06 00:32:40;;;;;;;8.40;5.18;;;1.00;99.90;;;0.48;100.00;96700.38;171076;28;1378;-78
2021/12/06 00:32:46;;;;;;;8.46;5.21;;;1.00;99.90;;;0.58;100.00;96714.41;172448;28;1494;-78
2021/12/06 00:32:52;;;;;;;7.07;4.45;;;1.00;99.90;;;0.56;100.00;96711.09;172012;28;1671;-78
2021/12/06 00:32:59;;;;;;;7.03;4.50;;;1.00;99.90;;;0.59;100.00;96717.91;171552;28;1671;-78
2021/12/06 00:33:05;;;;;;;6.57;4.53;;;1.00;99.90;;;0.54;100.00;96709.56;171706;28;1431;-78
2021/12/06 00:33:11;;;;;;;7.97;4.60;;;1.00;99.90;;;0.55;100.00;96712.06;171778;28;1424;-78
2021/12/06 00:33:17;;;;;;;7.63;4.40;;;1.00;99.90;;;0.60;100.00;96724.88;171213;28;999;-78
2021/12/06 00:33:25;;;;;;;10.73;4.97;;;1.00;99.90;;;0.41;100.00;96694.81;172430;28;1414;-78
2021/12/06 00:33:32;;;;;;;10.62;4.82;;;1.00;99.90;;;0.55;100.00;96725.31;171737;28;1447;-78
2021/12/06 00:33:39;;;;;;;8.77;4.33;;;1.00;99.90;;;0.42;100.00;96693.84;171885;28;1306;-78
2021/12/06 00:33:45;;;;;;;8.48;4.23;;;1.00;99.90;;;0.56;100.00;96711.09;172434;28;1557;-78
2021/12/06 00:33:58;;;;;;;6.90;4.07;;;1.00;99.90;;;0.57;100.00;96714.59;171026;28;1481;-78
2021/12/06 00:34:10;;;;;;;6.80;4.22;;;1.00;99.90;;;0.52;100.00;96711.53;171936;28;1215;-78
2021/12/06 00:34:18;;;;;;;8.64;4.68;;;1.00;99.90;;;0.60;100.00;96728.38;171682;28;1595;-78
2021/12/06 00:34:29;;;;;;;8.80;4.53;;;1.00;99.90;;;0.54;100.00;96713.03;171175;28;1071;-79
2021/12/06 00:34:37;;;;;;;9.40;4.85;;;1.00;99.90;;;0.49;100.00;96701.22;172441;28;1441;-78